sensor_id;sensor_type;location;lat;lon;timestamp;temperature;humidity
74537;SHT31;63013;51.104;-115.370;2022-09-03T00:00:31;24.84;41.78
74537;SHT31;63013;51.104;-115.370;2022-09-03T00:03:08;24.86;41.75
74537;SHT31;63013;51.104;-115.370;2022-09-03T00:05:55;24.90;41.67
74537;SHT31;63013;51.104;-115.370;2022-09-03T00:12:21;24.96;41.57
74537;SHT31;63013;51.104;-115.370;2022-09-03T00:14:56;24.99;41.53
74537;SHT31;63013;51.104;-115.370;2022-09-03T00:17:38;25.01;41.48
74537;SHT31;63013;51.104;-115.370;2022-09-03T00:20:14;25.04;41.45
74537;SHT31;63013;51.104;-115.370;2022-09-03T00:23:15;25.06;41.43
74537;SHT31;63013;51.104;-115.370;2022-09-03T00:28:31;25.11;41.38
74537;SHT31;63013;51.104;-115.370;2022-09-03T00:34:19;25.16;41.31
74537;SHT31;63013;51.104;-115.370;2022-09-03T00:37:15;25.17;41.24
74537;SHT31;63013;51.104;-115.370;2022-09-03T00:39:42;25.17;41.27
74537;SHT31;63013;51.104;-115.370;2022-09-03T00:45:30;25.20;41.28
74537;SHT31;63013;51.104;-115.370;2022-09-03T00:51:01;25.22;41.28
74537;SHT31;63013;51.104;-115.370;2022-09-03T00:57:19;25.25;41.26
74537;SHT31;63013;51.104;-115.370;2022-09-03T01:00:21;25.24;41.23
74537;SHT31;63013;51.104;-115.370;2022-09-03T01:09:17;25.23;41.28
74537;SHT31;63013;51.104;-115.370;2022-09-03T01:12:11;25.23;41.28
74537;SHT31;63013;51.104;-115.370;2022-09-03T01:14:59;25.23;41.30
74537;SHT31;63013;51.104;-115.370;2022-09-03T01:31:02;25.13;41.51
74537;SHT31;63013;51.104;-115.370;2022-09-03T01:33:58;25.13;41.55
74537;SHT31;63013;51.104;-115.370;2022-09-03T01:40:28;25.10;41.65
74537;SHT31;63013;51.104;-115.370;2022-09-03T01:43:14;25.08;41.71
74537;SHT31;63013;51.104;-115.370;2022-09-03T01:46:02;25.07;41.73
74537;SHT31;63013;51.104;-115.370;2022-09-03T01:49:11;25.06;41.80
74537;SHT31;63013;51.104;-115.370;2022-09-03T01:52:16;25.05;41.84
74537;SHT31;63013;51.104;-115.370;2022-09-03T01:57:55;25.05;41.91
74537;SHT31;63013;51.104;-115.370;2022-09-03T02:00:37;25.04;41.91
74537;SHT31;63013;51.104;-115.370;2022-09-03T02:03:11;25.04;41.97
74537;SHT31;63013;51.104;-115.370;2022-09-03T02:05:41;25.05;41.99
74537;SHT31;63013;51.104;-115.370;2022-09-03T02:08:08;25.04;42.00
74537;SHT31;63013;51.104;-115.370;2022-09-03T02:10:41;25.05;42.01
74537;SHT31;63013;51.104;-115.370;2022-09-03T02:15:53;25.05;42.06
74537;SHT31;63013;51.104;-115.370;2022-09-03T02:18:32;25.05;42.10
74537;SHT31;63013;51.104;-115.370;2022-09-03T02:21:07;25.05;42.10
74537;SHT31;63013;51.104;-115.370;2022-09-03T02:23:39;25.06;42.12
74537;SHT31;63013;51.104;-115.370;2022-09-03T02:26:08;25.06;42.13
74537;SHT31;63013;51.104;-115.370;2022-09-03T02:28:42;25.06;42.17
74537;SHT31;63013;51.104;-115.370;2022-09-03T02:31:10;25.05;42.20
74537;SHT31;63013;51.104;-115.370;2022-09-03T02:33:37;25.05;42.23
74537;SHT31;63013;51.104;-115.370;2022-09-03T02:36:09;25.02;42.27
74537;SHT31;63013;51.104;-115.370;2022-09-03T02:38:43;25.01;42.32
74537;SHT31;63013;51.104;-115.370;2022-09-03T02:41:11;24.99;42.36
74537;SHT31;63013;51.104;-115.370;2022-09-03T02:43:49;24.99;42.45
74537;SHT31;63013;51.104;-115.370;2022-09-03T02:46:33;24.96;42.48
74537;SHT31;63013;51.104;-115.370;2022-09-03T02:49:05;24.94;42.51
74537;SHT31;63013;51.104;-115.370;2022-09-03T02:51:38;24.94;42.58
74537;SHT31;63013;51.104;-115.370;2022-09-03T02:54:08;24.92;42.62
74537;SHT31;63013;51.104;-115.370;2022-09-03T02:56:36;24.91;42.65
74537;SHT31;63013;51.104;-115.370;2022-09-03T02:59:04;24.89;42.70
74537;SHT31;63013;51.104;-115.370;2022-09-03T03:01:33;24.88;42.72
74537;SHT31;63013;51.104;-115.370;2022-09-03T03:04:02;24.88;42.76
74537;SHT31;63013;51.104;-115.370;2022-09-03T03:06:29;24.88;42.80
74537;SHT31;63013;51.104;-115.370;2022-09-03T03:08:57;24.87;42.80
74537;SHT31;63013;51.104;-115.370;2022-09-03T03:11:30;24.86;42.88
74537;SHT31;63013;51.104;-115.370;2022-09-03T03:13:57;24.85;42.98
74537;SHT31;63013;51.104;-115.370;2022-09-03T03:16:24;24.85;43.00
74537;SHT31;63013;51.104;-115.370;2022-09-03T03:18:51;24.83;42.99
74537;SHT31;63013;51.104;-115.370;2022-09-03T03:21:21;24.82;43.01
74537;SHT31;63013;51.104;-115.370;2022-09-03T03:23:48;24.82;43.01
74537;SHT31;63013;51.104;-115.370;2022-09-03T03:26:17;24.82;43.04
74537;SHT31;63013;51.104;-115.370;2022-09-03T03:28:49;24.80;43.09
74537;SHT31;63013;51.104;-115.370;2022-09-03T03:31:22;24.78;43.10
74537;SHT31;63013;51.104;-115.370;2022-09-03T03:33:52;24.78;43.14
74537;SHT31;63013;51.104;-115.370;2022-09-03T03:36:32;24.76;43.18
74537;SHT31;63013;51.104;-115.370;2022-09-03T03:38:59;24.74;43.21
74537;SHT31;63013;51.104;-115.370;2022-09-03T03:41:34;24.73;43.27
74537;SHT31;63013;51.104;-115.370;2022-09-03T03:44:03;24.72;43.28
74537;SHT31;63013;51.104;-115.370;2022-09-03T03:46:36;24.71;43.30
74537;SHT31;63013;51.104;-115.370;2022-09-03T03:49:06;24.69;43.33
74537;SHT31;63013;51.104;-115.370;2022-09-03T03:51:35;24.68;43.38
74537;SHT31;63013;51.104;-115.370;2022-09-03T03:54:03;24.68;43.38
74537;SHT31;63013;51.104;-115.370;2022-09-03T03:56:31;24.65;43.40
74537;SHT31;63013;51.104;-115.370;2022-09-03T03:58:59;24.64;43.41
74537;SHT31;63013;51.104;-115.370;2022-09-03T04:01:27;24.62;43.47
74537;SHT31;63013;51.104;-115.370;2022-09-03T04:03:55;24.62;43.50
74537;SHT31;63013;51.104;-115.370;2022-09-03T04:06:24;24.63;43.50
74537;SHT31;63013;51.104;-115.370;2022-09-03T04:08:52;24.62;43.52
74537;SHT31;63013;51.104;-115.370;2022-09-03T04:11:20;24.61;43.54
74537;SHT31;63013;51.104;-115.370;2022-09-03T04:13:50;24.61;43.56
74537;SHT31;63013;51.104;-115.370;2022-09-03T04:16:21;24.61;43.56
74537;SHT31;63013;51.104;-115.370;2022-09-03T04:18:53;24.61;43.58
74537;SHT31;63013;51.104;-115.370;2022-09-03T04:21:22;24.62;43.59
74537;SHT31;63013;51.104;-115.370;2022-09-03T04:23:53;24.60;43.60
74537;SHT31;63013;51.104;-115.370;2022-09-03T04:26:22;24.59;43.61
74537;SHT31;63013;51.104;-115.370;2022-09-03T04:28:56;24.58;43.62
74537;SHT31;63013;51.104;-115.370;2022-09-03T04:31:28;24.58;43.66
74537;SHT31;63013;51.104;-115.370;2022-09-03T04:33:56;24.57;43.68
74537;SHT31;63013;51.104;-115.370;2022-09-03T04:36:24;24.57;43.70
74537;SHT31;63013;51.104;-115.370;2022-09-03T04:38:53;24.56;43.70
74537;SHT31;63013;51.104;-115.370;2022-09-03T04:41:24;24.54;43.70
74537;SHT31;63013;51.104;-115.370;2022-09-03T04:43:55;24.53;43.73
74537;SHT31;63013;51.104;-115.370;2022-09-03T04:46:25;24.52;43.76
74537;SHT31;63013;51.104;-115.370;2022-09-03T04:48:57;24.52;43.80
74537;SHT31;63013;51.104;-115.370;2022-09-03T04:51:25;24.51;43.80
74537;SHT31;63013;51.104;-115.370;2022-09-03T04:53:55;24.50;43.82
74537;SHT31;63013;51.104;-115.370;2022-09-03T04:56:33;24.49;43.88
74537;SHT31;63013;51.104;-115.370;2022-09-03T04:59:02;24.48;43.87
74537;SHT31;63013;51.104;-115.370;2022-09-03T05:01:35;24.48;43.87
74537;SHT31;63013;51.104;-115.370;2022-09-03T05:04:04;24.48;43.88
74537;SHT31;63013;51.104;-115.370;2022-09-03T05:06:33;24.47;43.90
74537;SHT31;63013;51.104;-115.370;2022-09-03T05:09:02;24.47;43.89
74537;SHT31;63013;51.104;-115.370;2022-09-03T05:11:30;24.47;43.90
74537;SHT31;63013;51.104;-115.370;2022-09-03T05:13:58;24.48;43.90
74537;SHT31;63013;51.104;-115.370;2022-09-03T05:16:25;24.47;43.90
74537;SHT31;63013;51.104;-115.370;2022-09-03T05:18:56;24.47;43.91
74537;SHT31;63013;51.104;-115.370;2022-09-03T05:21:25;24.47;43.91
74537;SHT31;63013;51.104;-115.370;2022-09-03T05:23:53;24.46;43.94
74537;SHT31;63013;51.104;-115.370;2022-09-03T05:26:22;24.44;43.95
74537;SHT31;63013;51.104;-115.370;2022-09-03T05:28:55;24.44;43.98
74537;SHT31;63013;51.104;-115.370;2022-09-03T05:31:25;24.42;44.00
74537;SHT31;63013;51.104;-115.370;2022-09-03T05:33:59;24.41;43.99
74537;SHT31;63013;51.104;-115.370;2022-09-03T05:36:30;24.41;43.72
74537;SHT31;63013;51.104;-115.370;2022-09-03T05:39:01;24.38;41.97
74537;SHT31;63013;51.104;-115.370;2022-09-03T05:41:30;24.34;41.20
74537;SHT31;63013;51.104;-115.370;2022-09-03T05:43:59;24.24;39.38
74537;SHT31;63013;51.104;-115.370;2022-09-03T05:46:27;24.14;39.75
74537;SHT31;63013;51.104;-115.370;2022-09-03T05:48:57;24.10;39.57
74537;SHT31;63013;51.104;-115.370;2022-09-03T05:51:32;24.07;39.36
74537;SHT31;63013;51.104;-115.370;2022-09-03T05:54:01;24.04;39.57
74537;SHT31;63013;51.104;-115.370;2022-09-03T05:56:29;24.04;38.75
74537;SHT31;63013;51.104;-115.370;2022-09-03T05:59:03;24.00;38.68
74537;SHT31;63013;51.104;-115.370;2022-09-03T06:01:43;23.99;38.46
74537;SHT31;63013;51.104;-115.370;2022-09-03T06:04:12;23.96;38.20
74537;SHT31;63013;51.104;-115.370;2022-09-03T06:06:42;23.94;37.95
74537;SHT31;63013;51.104;-115.370;2022-09-03T06:09:16;23.91;37.91
74537;SHT31;63013;51.104;-115.370;2022-09-03T06:12:01;23.88;37.49
74537;SHT31;63013;51.104;-115.370;2022-09-03T06:14:28;23.83;37.60
74537;SHT31;63013;51.104;-115.370;2022-09-03T06:16:56;23.82;37.60
74537;SHT31;63013;51.104;-115.370;2022-09-03T06:19:23;23.78;36.97
74537;SHT31;63013;51.104;-115.370;2022-09-03T06:21:50;23.75;37.02
74537;SHT31;63013;51.104;-115.370;2022-09-03T06:24:18;23.73;37.05
74537;SHT31;63013;51.104;-115.370;2022-09-03T06:26:52;23.69;36.94
74537;SHT31;63013;51.104;-115.370;2022-09-03T06:29:19;23.66;36.73
74537;SHT31;63013;51.104;-115.370;2022-09-03T06:31:46;23.63;36.64
74537;SHT31;63013;51.104;-115.370;2022-09-03T06:34:15;23.60;36.48
74537;SHT31;63013;51.104;-115.370;2022-09-03T06:36:43;23.57;36.53
74537;SHT31;63013;51.104;-115.370;2022-09-03T06:39:10;23.54;36.47
74537;SHT31;63013;51.104;-115.370;2022-09-03T06:41:38;23.53;36.54
74537;SHT31;63013;51.104;-115.370;2022-09-03T06:44:05;23.49;36.45
74537;SHT31;63013;51.104;-115.370;2022-09-03T06:46:36;23.45;36.50
74537;SHT31;63013;51.104;-115.370;2022-09-03T06:49:10;23.43;36.48
74537;SHT31;63013;51.104;-115.370;2022-09-03T06:51:37;23.38;36.49
74537;SHT31;63013;51.104;-115.370;2022-09-03T06:54:06;23.34;36.58
74537;SHT31;63013;51.104;-115.370;2022-09-03T06:56:36;23.33;36.69
74537;SHT31;63013;51.104;-115.370;2022-09-03T06:59:06;23.32;36.78
74537;SHT31;63013;51.104;-115.370;2022-09-03T07:01:39;23.29;36.74
74537;SHT31;63013;51.104;-115.370;2022-09-03T07:04:08;23.26;36.83
74537;SHT31;63013;51.104;-115.370;2022-09-03T07:06:37;23.24;36.77
74537;SHT31;63013;51.104;-115.370;2022-09-03T07:09:07;23.21;36.65
74537;SHT31;63013;51.104;-115.370;2022-09-03T07:11:36;23.14;36.52
74537;SHT31;63013;51.104;-115.370;2022-09-03T07:14:11;23.04;36.66
74537;SHT31;63013;51.104;-115.370;2022-09-03T07:16:39;22.97;36.86
74537;SHT31;63013;51.104;-115.370;2022-09-03T07:19:07;22.89;36.99
74537;SHT31;63013;51.104;-115.370;2022-09-03T07:21:35;22.78;37.11
74537;SHT31;63013;51.104;-115.370;2022-09-03T07:24:03;22.63;37.22
74537;SHT31;63013;51.104;-115.370;2022-09-03T07:26:32;22.53;37.21
74537;SHT31;63013;51.104;-115.370;2022-09-03T07:29:05;22.45;37.31
74537;SHT31;63013;51.104;-115.370;2022-09-03T07:31:34;22.39;37.37
74537;SHT31;63013;51.104;-115.370;2022-09-03T07:34:10;22.32;37.49
74537;SHT31;63013;51.104;-115.370;2022-09-03T07:36:40;22.25;37.76
74537;SHT31;63013;51.104;-115.370;2022-09-03T07:39:12;22.16;38.04
74537;SHT31;63013;51.104;-115.370;2022-09-03T07:41:40;22.10;38.11
74537;SHT31;63013;51.104;-115.370;2022-09-03T07:44:15;22.05;37.70
74537;SHT31;63013;51.104;-115.370;2022-09-03T07:46:44;22.03;37.86
74537;SHT31;63013;51.104;-115.370;2022-09-03T07:49:12;22.05;37.94
74537;SHT31;63013;51.104;-115.370;2022-09-03T07:51:39;22.08;37.71
74537;SHT31;63013;51.104;-115.370;2022-09-03T07:54:07;22.11;37.79
74537;SHT31;63013;51.104;-115.370;2022-09-03T07:56:36;22.14;37.90
74537;SHT31;63013;51.104;-115.370;2022-09-03T07:59:05;22.19;37.94
74537;SHT31;63013;51.104;-115.370;2022-09-03T08:01:36;22.22;37.96
74537;SHT31;63013;51.104;-115.370;2022-09-03T08:04:04;22.25;38.09
74537;SHT31;63013;51.104;-115.370;2022-09-03T08:06:32;22.28;38.11
74537;SHT31;63013;51.104;-115.370;2022-09-03T08:09:04;22.30;38.14
74537;SHT31;63013;51.104;-115.370;2022-09-03T08:11:38;22.31;38.45
74537;SHT31;63013;51.104;-115.370;2022-09-03T08:14:08;22.31;38.48
74537;SHT31;63013;51.104;-115.370;2022-09-03T08:16:38;22.31;38.49
74537;SHT31;63013;51.104;-115.370;2022-09-03T08:19:09;22.29;38.29
74537;SHT31;63013;51.104;-115.370;2022-09-03T08:21:37;22.27;38.11
74537;SHT31;63013;51.104;-115.370;2022-09-03T08:24:08;22.25;38.43
74537;SHT31;63013;51.104;-115.370;2022-09-03T08:26:38;22.23;38.31
74537;SHT31;63013;51.104;-115.370;2022-09-03T08:29:07;22.22;38.38
74537;SHT31;63013;51.104;-115.370;2022-09-03T08:31:35;22.22;38.31
74537;SHT31;63013;51.104;-115.370;2022-09-03T08:34:04;22.21;38.47
74537;SHT31;63013;51.104;-115.370;2022-09-03T08:36:33;22.21;38.38
74537;SHT31;63013;51.104;-115.370;2022-09-03T08:39:04;22.21;38.52
74537;SHT31;63013;51.104;-115.370;2022-09-03T08:41:46;22.20;38.59
74537;SHT31;63013;51.104;-115.370;2022-09-03T08:44:54;22.19;38.57
74537;SHT31;63013;51.104;-115.370;2022-09-03T08:58:37;22.14;38.69
74537;SHT31;63013;51.104;-115.370;2022-09-03T09:04:04;22.12;38.75
74537;SHT31;63013;51.104;-115.370;2022-09-03T09:07:29;22.11;38.70
74537;SHT31;63013;51.104;-115.370;2022-09-03T09:10:26;22.08;38.91
74537;SHT31;63013;51.104;-115.370;2022-09-03T09:19:23;22.02;38.99
74537;SHT31;63013;51.104;-115.370;2022-09-03T09:22:11;22.01;38.83
74537;SHT31;63013;51.104;-115.370;2022-09-03T09:24:55;22.00;38.81
74537;SHT31;63013;51.104;-115.370;2022-09-03T09:27:29;21.99;38.73
74537;SHT31;63013;51.104;-115.370;2022-09-03T09:29:58;21.97;38.78
74537;SHT31;63013;51.104;-115.370;2022-09-03T09:32:33;21.96;38.71
74537;SHT31;63013;51.104;-115.370;2022-09-03T09:35:12;21.94;38.98
74537;SHT31;63013;51.104;-115.370;2022-09-03T09:37:51;21.90;39.15
74537;SHT31;63013;51.104;-115.370;2022-09-03T09:40:29;21.87;39.16
74537;SHT31;63013;51.104;-115.370;2022-09-03T09:46:05;21.81;39.40
74537;SHT31;63013;51.104;-115.370;2022-09-03T09:48:56;21.77;39.48
74537;SHT31;63013;51.104;-115.370;2022-09-03T09:51:30;21.76;39.57
74537;SHT31;63013;51.104;-115.370;2022-09-03T09:54:02;21.75;39.58
74537;SHT31;63013;51.104;-115.370;2022-09-03T09:56:43;21.72;39.68
74537;SHT31;63013;51.104;-115.370;2022-09-03T09:59:12;21.72;39.65
74537;SHT31;63013;51.104;-115.370;2022-09-03T10:01:41;21.71;39.61
74537;SHT31;63013;51.104;-115.370;2022-09-03T10:04:23;21.70;39.60
74537;SHT31;63013;51.104;-115.370;2022-09-03T10:07:04;21.69;39.67
74537;SHT31;63013;51.104;-115.370;2022-09-03T10:10:05;21.68;39.59
74537;SHT31;63013;51.104;-115.370;2022-09-03T10:21:19;21.57;39.86
74537;SHT31;63013;51.104;-115.370;2022-09-03T10:27:08;21.52;39.91
74537;SHT31;63013;51.104;-115.370;2022-09-03T10:29:39;21.50;39.91
74537;SHT31;63013;51.104;-115.370;2022-09-03T10:38:35;21.42;40.06
74537;SHT31;63013;51.104;-115.370;2022-09-03T10:47:06;21.36;39.94
74537;SHT31;63013;51.104;-115.370;2022-09-03T10:58:55;21.26;40.26
74537;SHT31;63013;51.104;-115.370;2022-09-03T11:02:03;21.23;40.30
74537;SHT31;63013;51.104;-115.370;2022-09-03T11:05:17;21.18;40.37
74537;SHT31;63013;51.104;-115.370;2022-09-03T11:07:59;21.17;40.46
74537;SHT31;63013;51.104;-115.370;2022-09-03T11:11:18;21.13;40.60
74537;SHT31;63013;51.104;-115.370;2022-09-03T11:14:00;21.11;40.76
74537;SHT31;63013;51.104;-115.370;2022-09-03T11:16:53;21.09;40.82
74537;SHT31;63013;51.104;-115.370;2022-09-03T11:19:35;21.07;40.89
74537;SHT31;63013;51.104;-115.370;2022-09-03T11:22:13;21.03;41.05
74537;SHT31;63013;51.104;-115.370;2022-09-03T11:24:42;21.00;41.12
74537;SHT31;63013;51.104;-115.370;2022-09-03T11:30:14;20.98;41.11
74537;SHT31;63013;51.104;-115.370;2022-09-03T11:33:10;20.96;41.12
74537;SHT31;63013;51.104;-115.370;2022-09-03T11:35:42;20.93;41.13
74537;SHT31;63013;51.104;-115.370;2022-09-03T11:41:02;20.88;41.12
74537;SHT31;63013;51.104;-115.370;2022-09-03T11:43:31;20.86;41.02
74537;SHT31;63013;51.104;-115.370;2022-09-03T11:49:09;20.83;41.08
74537;SHT31;63013;51.104;-115.370;2022-09-03T11:51:39;20.81;41.12
74537;SHT31;63013;51.104;-115.370;2022-09-03T11:56:39;20.76;41.13
74537;SHT31;63013;51.104;-115.370;2022-09-03T12:02:00;20.72;41.03
74537;SHT31;63013;51.104;-115.370;2022-09-03T12:04:56;20.70;41.09
74537;SHT31;63013;51.104;-115.370;2022-09-03T12:07:44;20.67;41.18
74537;SHT31;63013;51.104;-115.370;2022-09-03T12:13:51;20.59;41.14
74537;SHT31;63013;51.104;-115.370;2022-09-03T12:16:48;20.56;41.26
74537;SHT31;63013;51.104;-115.370;2022-09-03T12:19:49;20.53;41.26
74537;SHT31;63013;51.104;-115.370;2022-09-03T12:22:24;20.49;41.22
74537;SHT31;63013;51.104;-115.370;2022-09-03T12:24:54;20.48;41.32
74537;SHT31;63013;51.104;-115.370;2022-09-03T12:27:32;20.47;41.39
74537;SHT31;63013;51.104;-115.370;2022-09-03T12:30:00;20.47;41.33
74537;SHT31;63013;51.104;-115.370;2022-09-03T12:32:31;20.44;41.31
74537;SHT31;63013;51.104;-115.370;2022-09-03T12:35:15;20.42;41.33
74537;SHT31;63013;51.104;-115.370;2022-09-03T12:37:50;20.39;41.40
74537;SHT31;63013;51.104;-115.370;2022-09-03T12:40:20;20.37;41.40
74537;SHT31;63013;51.104;-115.370;2022-09-03T12:42:50;20.36;41.40
74537;SHT31;63013;51.104;-115.370;2022-09-03T12:45:22;20.34;41.40
74537;SHT31;63013;51.104;-115.370;2022-09-03T12:47:51;20.31;41.40
74537;SHT31;63013;51.104;-115.370;2022-09-03T12:50:22;20.28;41.44
74537;SHT31;63013;51.104;-115.370;2022-09-03T12:53:00;20.26;41.50
74537;SHT31;63013;51.104;-115.370;2022-09-03T12:55:37;20.25;41.43
74537;SHT31;63013;51.104;-115.370;2022-09-03T12:58:23;20.23;41.54
74537;SHT31;63013;51.104;-115.370;2022-09-03T13:01:09;20.22;41.55
74537;SHT31;63013;51.104;-115.370;2022-09-03T13:03:57;20.19;41.60
74537;SHT31;63013;51.104;-115.370;2022-09-03T13:06:47;20.16;41.59
74537;SHT31;63013;51.104;-115.370;2022-09-03T13:09:40;20.14;41.67
74537;SHT31;63013;51.104;-115.370;2022-09-03T13:12:19;20.12;41.70
74537;SHT31;63013;51.104;-115.370;2022-09-03T13:14:54;20.10;41.72
74537;SHT31;63013;51.104;-115.370;2022-09-03T13:29:53;19.93;41.60
74537;SHT31;63013;51.104;-115.370;2022-09-03T13:44:46;19.84;41.73
74537;SHT31;63013;51.104;-115.370;2022-09-03T13:50:51;19.77;41.96
74537;SHT31;63013;51.104;-115.370;2022-09-03T13:53:58;19.74;42.16
74537;SHT31;63013;51.104;-115.370;2022-09-03T13:56:50;19.75;42.26
74537;SHT31;63013;51.104;-115.370;2022-09-03T14:02:32;19.73;42.30
74537;SHT31;63013;51.104;-115.370;2022-09-03T14:05:23;19.70;42.30
74537;SHT31;63013;51.104;-115.370;2022-09-03T14:11:48;19.70;42.36
74537;SHT31;63013;51.104;-115.370;2022-09-03T14:17:47;19.67;42.20
74537;SHT31;63013;51.104;-115.370;2022-09-03T14:20:23;19.65;42.24
74537;SHT31;63013;51.104;-115.370;2022-09-03T14:26:27;19.64;42.30
74537;SHT31;63013;51.104;-115.370;2022-09-03T14:28:59;19.63;42.32
74537;SHT31;63013;51.104;-115.370;2022-09-03T14:31:56;19.62;42.31
74537;SHT31;63013;51.104;-115.370;2022-09-03T14:34:53;19.60;42.42
74537;SHT31;63013;51.104;-115.370;2022-09-03T14:43:50;19.56;42.72
74537;SHT31;63013;51.104;-115.370;2022-09-03T14:50:02;19.53;42.89
74537;SHT31;63013;51.104;-115.370;2022-09-03T15:02:47;19.49;43.15
74537;SHT31;63013;51.104;-115.370;2022-09-03T15:11:19;19.47;43.46
74537;SHT31;63013;51.104;-115.370;2022-09-03T15:22:26;19.45;43.74
74537;SHT31;63013;51.104;-115.370;2022-09-03T15:33:46;19.45;43.78
74537;SHT31;63013;51.104;-115.370;2022-09-03T15:36:40;19.45;43.86
74537;SHT31;63013;51.104;-115.370;2022-09-03T15:39:16;19.45;43.90
74537;SHT31;63013;51.104;-115.370;2022-09-03T15:41:52;19.44;43.89
74537;SHT31;63013;51.104;-115.370;2022-09-03T15:44:27;19.44;43.90
74537;SHT31;63013;51.104;-115.370;2022-09-03T15:47:35;19.45;43.90
74537;SHT31;63013;51.104;-115.370;2022-09-03T15:56:14;19.49;43.98
74537;SHT31;63013;51.104;-115.370;2022-09-03T16:04:55;19.53;44.04
74537;SHT31;63013;51.104;-115.370;2022-09-03T16:22:05;19.60;44.38
74537;SHT31;63013;51.104;-115.370;2022-09-03T16:25:05;19.61;44.44
74537;SHT31;63013;51.104;-115.370;2022-09-03T16:28:03;19.62;44.39
74537;SHT31;63013;51.104;-115.370;2022-09-03T16:30:45;19.62;44.40
74537;SHT31;63013;51.104;-115.370;2022-09-03T16:39:38;19.65;44.47
74537;SHT31;63013;51.104;-115.370;2022-09-03T16:45:49;19.67;44.57
74537;SHT31;63013;51.104;-115.370;2022-09-03T16:49:03;19.67;44.61
74537;SHT31;63013;51.104;-115.370;2022-09-03T16:52:07;19.68;44.65
74537;SHT31;63013;51.104;-115.370;2022-09-03T16:55:00;19.70;44.66
74537;SHT31;63013;51.104;-115.370;2022-09-03T16:58:10;19.72;44.75
74537;SHT31;63013;51.104;-115.370;2022-09-03T17:09:59;19.75;44.80
74537;SHT31;63013;51.104;-115.370;2022-09-03T17:21:38;19.79;44.80
74537;SHT31;63013;51.104;-115.370;2022-09-03T17:24:41;19.81;44.84
74537;SHT31;63013;51.104;-115.370;2022-09-03T17:27:25;19.81;44.83
74537;SHT31;63013;51.104;-115.370;2022-09-03T17:33:10;19.82;44.89
74537;SHT31;63013;51.104;-115.370;2022-09-03T17:36:15;19.83;44.87
74537;SHT31;63013;51.104;-115.370;2022-09-03T17:42:23;19.86;44.92
74537;SHT31;63013;51.104;-115.370;2022-09-03T17:45:40;19.86;44.89
74537;SHT31;63013;51.104;-115.370;2022-09-03T17:48:54;19.87;44.88
74537;SHT31;63013;51.104;-115.370;2022-09-03T17:59:58;19.92;44.87
74537;SHT31;63013;51.104;-115.370;2022-09-03T18:02:42;19.94;44.85
74537;SHT31;63013;51.104;-115.370;2022-09-03T18:08:56;19.96;44.81
74537;SHT31;63013;51.104;-115.370;2022-09-03T18:11:34;19.98;44.80
74537;SHT31;63013;51.104;-115.370;2022-09-03T18:17:02;20.01;44.82
74537;SHT31;63013;51.104;-115.370;2022-09-03T18:19:51;20.02;44.80
74537;SHT31;63013;51.104;-115.370;2022-09-03T18:22:55;20.04;44.82
74537;SHT31;63013;51.104;-115.370;2022-09-03T18:26:10;20.05;44.81
74537;SHT31;63013;51.104;-115.370;2022-09-03T18:29:15;20.08;44.81
74537;SHT31;63013;51.104;-115.370;2022-09-03T18:32:14;20.10;44.80
74537;SHT31;63013;51.104;-115.370;2022-09-03T18:34:59;20.13;44.74
74537;SHT31;63013;51.104;-115.370;2022-09-03T18:37:44;20.16;44.73
74537;SHT31;63013;51.104;-115.370;2022-09-03T18:40:42;20.18;44.72
74537;SHT31;63013;51.104;-115.370;2022-09-03T18:47:21;20.23;44.64
74537;SHT31;63013;51.104;-115.370;2022-09-03T18:50:28;20.26;44.66
74537;SHT31;63013;51.104;-115.370;2022-09-03T18:56:52;20.28;44.61
74537;SHT31;63013;51.104;-115.370;2022-09-03T19:16:12;20.41;44.57
74537;SHT31;63013;51.104;-115.370;2022-09-03T19:19:11;20.43;44.52
74537;SHT31;63013;51.104;-115.370;2022-09-03T19:22:38;20.46;44.52
74537;SHT31;63013;51.104;-115.370;2022-09-03T19:25:25;20.50;44.50
74537;SHT31;63013;51.104;-115.370;2022-09-03T19:28:23;20.52;44.44
74537;SHT31;63013;51.104;-115.370;2022-09-03T19:31:19;20.55;44.41
74537;SHT31;63013;51.104;-115.370;2022-09-03T19:37:58;20.63;44.40
74537;SHT31;63013;51.104;-115.370;2022-09-03T19:41:02;20.67;44.37
74537;SHT31;63013;51.104;-115.370;2022-09-03T19:47:34;20.74;44.30
74537;SHT31;63013;51.104;-115.370;2022-09-03T19:50:36;20.78;44.25
74537;SHT31;63013;51.104;-115.370;2022-09-03T19:53:33;20.83;44.22
74537;SHT31;63013;51.104;-115.370;2022-09-03T19:56:26;20.86;44.20
74537;SHT31;63013;51.104;-115.370;2022-09-03T19:59:14;20.91;44.18
74537;SHT31;63013;51.104;-115.370;2022-09-03T20:02:06;20.95;44.16
74537;SHT31;63013;51.104;-115.370;2022-09-03T20:05:02;20.99;44.11
74537;SHT31;63013;51.104;-115.370;2022-09-03T20:07:57;21.04;44.09
74537;SHT31;63013;51.104;-115.370;2022-09-03T20:10:44;21.07;44.07
74537;SHT31;63013;51.104;-115.370;2022-09-03T20:13:18;21.11;44.01
74537;SHT31;63013;51.104;-115.370;2022-09-03T20:18:45;21.19;43.97
74537;SHT31;63013;51.104;-115.370;2022-09-03T20:21:23;21.24;43.91
74537;SHT31;63013;51.104;-115.370;2022-09-03T20:24:09;21.28;43.90
74537;SHT31;63013;51.104;-115.370;2022-09-03T20:27:03;21.33;43.88
74537;SHT31;63013;51.104;-115.370;2022-09-03T20:30:05;21.37;43.82
74537;SHT31;63013;51.104;-115.370;2022-09-03T20:48:13;21.64;43.59
74537;SHT31;63013;51.104;-115.370;2022-09-03T21:02:36;21.86;43.40
74537;SHT31;63013;51.104;-115.370;2022-09-03T21:05:31;21.90;43.35
74537;SHT31;63013;51.104;-115.370;2022-09-03T21:08:19;21.95;43.34
74537;SHT31;63013;51.104;-115.370;2022-09-03T21:11:00;21.99;43.31
74537;SHT31;63013;51.104;-115.370;2022-09-03T21:13:40;22.03;43.28
74537;SHT31;63013;51.104;-115.370;2022-09-03T21:19:21;22.12;43.21
74537;SHT31;63013;51.104;-115.370;2022-09-03T21:22:57;22.16;43.14
74537;SHT31;63013;51.104;-115.370;2022-09-03T21:25:42;22.22;43.10
74537;SHT31;63013;51.104;-115.370;2022-09-03T21:28:45;22.26;43.10
74537;SHT31;63013;51.104;-115.370;2022-09-03T21:31:31;22.30;43.07
74537;SHT31;63013;51.104;-115.370;2022-09-03T21:34:07;22.34;43.03
74537;SHT31;63013;51.104;-115.370;2022-09-03T21:36:50;22.38;43.01
74537;SHT31;63013;51.104;-115.370;2022-09-03T21:39:24;22.41;43.00
74537;SHT31;63013;51.104;-115.370;2022-09-03T21:47:23;22.52;42.91
74537;SHT31;63013;51.104;-115.370;2022-09-03T21:49:59;22.55;42.90